Delta, Utah Weather observations

Data are for observation ending at time listed.
 Day   Time    Ave.   Ave.  Ave.  Vector   Max.   Stn.    Total    Solar   Ave.  
  of    of     Air    Rel.  Wind   Wind    Wind   Baro.  Precip.   Rad.    Soil  
Year   Day     Temp.  Hum.  Speed  Dir.    Gust   Pres.                    Temp. 
2017   (MST)    F      %     mph   deg.    mph     mb.     in.     W/m2     F   
------------------------------------------------------------------------------
  17    1:20   20.0    86    1.7   356      3.3   867.4    0.00       0    33.3
  17    1:30   19.8    87    2.1    18      4.9   867.4    0.00       0    33.8
  17    1:40   19.5    86    2.6     7      5.6   867.4    0.00       0    33.4
  17    1:50   19.0    85    2.0   347      3.4   867.4    0.00       0    33.4
  17    2:00   18.8    84    2.6   344      4.4   867.5    0.00       0    33.2
  17    2:10   18.7    85    2.2   336      4.8   867.6    0.00       0    33.3
  17    2:20   18.7    84    1.8   345      3.4   867.5    0.00       0    33.5
  17    2:30   18.5    84    1.0   338      2.2   867.6    0.00       0    33.1
  17    2:40   18.4    85    1.5   326      2.9   867.5    0.00       0    33.5
  17    2:50   18.3    85    0.9   328      1.8   867.4    0.00       0    33.4
  17    3:00   18.3    85    1.3   335      2.5   867.3    0.00       0    33.4
  17    3:10   18.1    86    1.8   342      2.9   867.2    0.00       0    33.4
  17    3:20   17.9    86    0.6   348      2.4   867.2    0.00       0    33.4
  17    3:30   17.4    86    0.0     0      0.0   867.2    0.00       0    33.3
  17    3:40   17.3    86    0.1    70      0.7   867.1    0.00       0    33.3
  17    3:50   17.2    86    0.6   354      1.5   867.1    0.00       0    33.3
  17    4:00   17.0    86    0.2   354      1.0   867.0    0.00       0    33.2
  17    4:10   16.6    86    0.0     0      0.0   867.0    0.00       0    33.4
  17    4:20   16.7    86    0.8   354      1.3   867.0    0.00       0    33.4
  17    4:30   16.9    86    1.2   349      2.3   867.0    0.00       0    33.2
  17    4:40   17.0    86    1.8   338      2.6   866.9    0.00       0    33.2
  17    4:50   17.1    87    1.6   346      2.5   866.7    0.00       0    33.4
  17    5:00   17.0    86    1.4   339      2.5   866.7    0.00       0    33.3
  17    5:10   16.7    86    2.1   343      2.9   866.6    0.00       0    33.2
  17    5:20   16.5    86    1.8   353      2.6   866.6    0.00       0    33.4
  17    5:30   16.8    87    1.7    20      3.7   866.6    0.00       0    33.2
  17    5:40   17.0    86    0.8    15      2.0   866.6    0.00       0    33.2
  17    5:50   17.1    86    1.1    24      2.2   866.6    0.00       0    33.6
  17    6:00   17.1    86    1.2    45      3.1   866.6    0.00       0    33.2
  17    6:10   16.8    86    0.6    49      1.8   866.6    0.00       0    33.3
  17    6:20   16.4    86    0.3    54      1.1   866.7    0.00       0    33.2
  17    6:30   16.3    87    0.0     0      0.0   866.8    0.00       0    33.0
  17    6:40   16.3    87    0.5    54      1.0   866.8    0.00       0    33.1
  17    6:50   16.0    87    0.2    54      0.7   866.8    0.00       0    33.2
  17    7:00   15.8    87    0.2    54      0.9   866.8    0.00       0    33.0
  17    7:10   15.8    87    0.1    57      0.8   866.8    0.00       0    33.1
  17    7:20   15.9    87    0.0     0      0.0   866.9    0.00       0    33.2
  17    7:30   15.9    87    0.0     0      0.0   866.9    0.00       0    33.2
  17    7:40   15.8    87    0.0     0      0.0   867.0    0.00       0    33.2
  17    7:50   15.9    88    0.6   297      1.8   867.1    0.00       2    33.2
  17    8:00   16.2    88    0.2   292      0.9   867.2    0.00       3    33.2
  17    8:10   16.4    88    0.0     0      0.0   867.2    0.00       8    33.3
  17    8:20   17.3    88    0.1   293      1.0   867.3    0.00      13    33.3
  17    8:30   18.4    88    0.7   294      1.6   867.3    0.00      23    33.0
  17    8:40   19.0    89    1.0   318      2.3   867.4    0.00      27    33.2
  17    8:50   19.2    89    1.2   323      2.3   867.5    0.00      31    33.1
  17    9:00   19.6    90    0.3     5      1.6   867.6    0.00      37    33.0
  17    9:10   20.1    90    1.0   226      2.6   867.7    0.00      38    33.2
  17    9:20   20.5    90    0.5   269      2.1   867.8    0.00      50    33.2
  17    9:30   20.7    90    1.6   258      3.2   867.9    0.00      50    33.3
  17    9:40   20.6    90    1.8   180      3.8   868.0    0.00      66    33.1
  17    9:50   20.2    91    2.3   129      4.0   868.0    0.00      80    33.1
  17   10:00   20.2    91    1.2   185      3.2   868.1    0.00      82    33.1
  17   10:10   20.8    91    0.9   228      2.4   868.3    0.00      82    33.2
  17   10:20   20.9    91    1.5   221      3.8   868.3    0.00      91    32.9
  17   10:30   20.8    90    1.2   296      3.7   868.5    0.00      98    33.1
  17   10:40   20.9    91    1.6   308      3.1   868.6    0.00     115    33.1
  17   10:50   21.6    91    1.0   177      2.3   868.5    0.00     140    33.2
  17   11:00   21.7    91    1.1   172      2.5   868.6    0.00     148    33.1
  17   11:10   22.1    91    1.6   144      2.8   868.5    0.00     170    33.1
  17   11:20   22.2    91    2.0   105      3.1   868.5    0.00     203    33.0
  17   11:30   22.5    90    1.9    96      4.2   868.5    0.00     181    33.1
  17   11:40   23.1    90    0.5   125      1.7   868.4    0.00     193    33.3
  17   11:50   23.8    90    1.4   125      3.3   868.3    0.00     172    33.2
  17   12:00   23.6    90    2.3   121      4.7   868.1    0.00     235    33.3
  17   12:10   23.7    90    1.9   159      4.5   868.0    0.00     198    33.3
  17   12:20   23.9    90    1.5   164      4.3   867.9    0.00     181    33.0
  17   12:30   24.1    90    1.4   168      4.5   867.8    0.00     151    33.2
  17   12:40   24.9    89    1.3   128      3.5   867.6    0.00     161    33.6
  17   12:50   25.2    88    1.5   144      2.9   867.5    0.00     131    33.4
  17   13:00   26.3    87    1.9   143      5.0   867.4    0.00     223    33.3
  17   13:10   26.5    84    2.8   175      5.1   867.2    0.00     193    33.2
  17   13:20   26.5    83    2.5   166      5.7   867.1    0.00     261    33.3
  17   13:30   27.2    81    2.6   140      5.2   867.0    0.00     187    33.2
  17   13:40   27.6    79    2.6   156      5.0   866.8    0.00     180    32.9
  17   13:50   27.8    78    1.4   135      4.5   866.6    0.00     162    32.8
  17   14:00   29.0    76    1.6    82      3.9   866.5    0.00     357    33.3
  17   14:10   29.6    74    2.4   217      5.2   866.4    0.00     198    33.3
  17   14:20   29.3    74    1.3   200      4.2   866.4    0.00     188    33.2
  17   14:30   29.7    72    2.9   202      4.7   866.3    0.00     149    33.1
  17   14:40   29.6    72    1.8   176      4.0   866.3    0.00      79    33.3
  17   14:50   30.0    70    1.3   218      3.3   866.3    0.00      86    33.2
  17   15:00   30.3    69    2.2   268      4.9   866.3    0.00      84    33.0
  17   15:10   30.6    68    2.0   292      4.8   866.3    0.00     164    33.0
  17   15:20   30.9    67    3.0   277      5.6   866.3    0.00     170    32.6
  17   15:30   31.0    67    2.0   336      5.3   866.2    0.00     118    33.1
  17   15:40   31.2    67    1.6   203      5.0   866.2    0.00     199    33.1
  17   15:50   31.7    66    1.5   139      4.4   866.1    0.00     128    33.1
  17   16:00   30.8    67    3.1   139      4.7   866.1    0.00      98    33.1
  17   16:10   30.7    68    1.9   178      4.1   866.0    0.00      81    33.1
  17   16:20   31.2    66    0.6    21      2.1   866.0    0.00     118    33.2
  17   16:30   31.1    66    1.6   169      4.7   865.9    0.00      60    33.2
  17   16:40   30.5    68    2.0   176      4.0   865.9    0.00      38    33.2
  17   16:50   30.4    68    1.7   165      3.0   865.9    0.00      29    33.2
  17   17:00   30.5    68    1.4   179      3.3   865.8    0.00      33    33.3
  17   17:10   30.4    68    1.0   204      2.1   865.8    0.00      21    32.8
  17   17:20   29.9    69    1.5   206      2.8   865.9    0.00      12    33.0
  17   17:30   29.7    70    1.6   223      2.6   865.9    0.00       8    33.1
  17   17:40   29.3    70    1.5   227      2.6   865.9    0.00       4    33.2
  17   17:50   28.9    71    1.5   234      2.3   865.9    0.00       0    33.2
  17   18:00   28.5    72    1.5   236      3.1   866.0    0.00       0    33.2
  17   18:10   28.3    73    1.3   234      1.8   865.9    0.00       0    33.2
  17   18:20   28.0    73    0.8   247      1.8   865.9    0.00       0    33.1
  17   18:30   27.6    74    0.8   254      1.8   865.8    0.00       0    33.1
  17   18:40   27.1    74    0.2   260      0.9   865.9    0.00       0    33.3
  17   18:50   26.5    76    0.0     0      0.0   866.0    0.00       0    33.0
  17   19:00   26.1    77    0.5   260      1.5   866.0    0.00       0    33.1
  17   19:10   26.1    78    0.2   260      0.8   866.1    0.00       0    33.0
  17   19:20   25.8    78    0.0     0      0.0   866.1    0.00       0    33.1
  17   19:30   25.4    78    0.0     0      0.0   866.1    0.00       0    33.1
  17   19:40   25.4    79    0.0     0      0.0   866.1    0.00       0    33.1
  17   19:50   25.1    79    0.0     0      0.0   866.0    0.00       0    33.0
  17   20:00   25.1    80    0.0     0      0.0   866.1    0.00       0    33.0
  17   20:10   25.1    80    0.0     0      0.0   866.1    0.00       0    33.1
  17   20:20   24.7    80    0.0     0      0.0   866.1    0.00       0    33.3
  17   20:30   24.4    81    0.0     0      0.0   866.2    0.00       0    33.2
  17   20:40   24.2    82    0.0     0      0.0   866.3    0.00       0    33.0
  17   20:50   24.1    82    0.0   260      0.6   866.4    0.00       0    33.0
  17   21:00   24.1    83    0.0     0      0.0   866.5    0.00       0    33.0
  17   21:10   24.1    83    0.1   176      0.6   866.7    0.00       0    32.9
  17   21:20   23.8    84    0.0     0      0.0   866.7    0.00       0    33.2
  17   21:30   23.6    84    0.0   176      0.4   866.7    0.00       0    33.0
  17   21:40   23.3    85    0.6   176      0.9   866.7    0.00       0    33.1
  17   21:50   23.1    86    0.8    56      1.6   866.7    0.00       0    33.0
  17   22:00   22.9    86    0.4    52      1.2   866.6    0.00       0    33.0
  17   22:10   22.8    87    1.2    83      1.8   866.6    0.00       0    33.0
  17   22:20   22.9    87    1.6    96      2.7   866.4    0.00       0    32.9
  17   22:30   22.9    87    1.3    96      1.8   866.4    0.00       0    33.2
  17   22:40   22.7    87    0.8    98      1.2   866.3    0.00       0    32.9
  17   22:50   22.5    87    0.9    98      1.7   866.3    0.00       0    32.9
  17   23:00   22.3    87    0.8    91      1.5   866.3    0.00       0    33.1
  17   23:10   21.9    87    0.6    87      1.1   866.3    0.00       0    33.1
  17   23:20   21.7    88    0.0    87      0.5   866.3    0.00       0    33.3
  17   23:30   21.6    88    0.7   334      1.6   866.4    0.00       0    32.9
  17   23:40   21.4    88    1.2   334      1.8   866.4    0.00       0    33.0
  17   23:50   21.2    88    0.6   323      1.1   866.4    0.00       0    33.1
  18    0:00   20.9    88    0.1   324      0.5   866.2    0.00       0    33.0
  18    0:10   20.6    88    0.3   353      2.4   866.1    0.00       0    33.1
  18    0:20   20.5    88    0.0   353      0.5   866.0    0.00       0    33.0
  18    0:30   20.4    88    0.0     0      0.0   865.9    0.00       0    32.9
  18    0:40   20.5    88    0.4    66      2.0   865.8    0.00       0    32.9
  18    0:50   20.8    89    1.2    87      2.9   865.6    0.00       0    33.0
  18    1:00   20.9    88    1.6    98      2.6   865.3    0.00       0    32.9
  18    1:10   20.9    88    1.0    86      2.6   865.1    0.00       1    33.0

Return to Delta, Utah graphs page.


Western Regional Climate Center,wrcc@dri.edu